createdAt,value
2023-01-27T00:00:55.540Z,19.50
2023-01-27T00:03:22.691Z,19.00
2023-01-27T00:05:49.972Z,18.90
2023-01-27T00:08:17.415Z,18.70
2023-01-27T00:10:44.139Z,18.20
2023-01-27T00:13:27.890Z,18.20
2023-01-27T00:15:55.762Z,18.70
2023-01-27T00:18:26.079Z,17.90
2023-01-27T00:21:11.160Z,18.00
2023-01-27T00:23:55.980Z,18.10
2023-01-27T00:26:22.811Z,18.90
2023-01-27T00:28:49.259Z,20.90
2023-01-27T00:31:37.125Z,19.80
2023-01-27T00:34:10.978Z,17.80
2023-01-27T00:36:40.460Z,19.60
2023-01-27T00:39:09.711Z,19.40
2023-01-27T00:41:36.719Z,19.70
2023-01-27T00:44:05.712Z,20.20
2023-01-27T00:46:33.464Z,19.90
2023-01-27T00:49:00.163Z,18.90
2023-01-27T00:51:26.777Z,19.30
2023-01-27T00:53:53.285Z,19.10
2023-01-27T00:56:19.724Z,19.10
2023-01-27T00:58:46.841Z,18.00
2023-01-27T01:01:16.945Z,19.00
2023-01-27T01:03:44.301Z,21.90
2023-01-27T01:06:15.707Z,22.80
2023-01-27T01:08:43.659Z,22.40
2023-01-27T01:11:15.031Z,22.30
2023-01-27T01:13:43.894Z,20.20
2023-01-27T01:16:17.939Z,21.90
2023-01-27T01:18:45.441Z,21.50
2023-01-27T01:21:12.913Z,21.20
2023-01-27T01:23:43.371Z,21.60
2023-01-27T01:26:13.279Z,21.40
2023-01-27T01:28:40.173Z,21.60
2023-01-27T01:31:17.410Z,22.00
2023-01-27T01:33:44.294Z,19.90
2023-01-27T01:36:14.971Z,20.50
2023-01-27T01:38:41.536Z,19.80
2023-01-27T01:41:15.198Z,20.80
2023-01-27T01:43:41.794Z,20.10
2023-01-27T01:46:12.404Z,21.90
2023-01-27T01:49:02.802Z,21.50
2023-01-27T01:51:41.899Z,20.00
2023-01-27T01:54:14.594Z,19.40
2023-01-27T01:56:58.039Z,20.60
2023-01-27T01:59:49.797Z,19.90
2023-01-27T02:02:25.184Z,19.10
2023-01-27T02:05:15.938Z,19.80
2023-01-27T02:08:29.659Z,19.50
2023-01-27T02:13:47.294Z,19.00
2023-01-27T02:16:14.177Z,18.10
2023-01-27T02:18:41.827Z,18.00
2023-01-27T02:21:09.289Z,17.70
2023-01-27T02:23:48.918Z,18.90
2023-01-27T02:26:25.561Z,18.80
2023-01-27T02:28:59.660Z,20.20
2023-01-27T02:31:26.363Z,20.30
2023-01-27T02:33:59.707Z,19.20
2023-01-27T02:36:29.441Z,18.30
2023-01-27T02:38:58.292Z,19.20
2023-01-27T02:41:31.852Z,18.70
2023-01-27T02:43:58.524Z,19.30
2023-01-27T02:46:25.141Z,18.20
2023-01-27T02:48:52.236Z,16.60
2023-01-27T02:51:18.944Z,17.40
2023-01-27T02:53:46.453Z,17.30
2023-01-27T02:56:13.314Z,16.80
2023-01-27T02:58:39.796Z,18.30
2023-01-27T03:01:07.332Z,16.90
2023-01-27T03:03:33.922Z,17.40
2023-01-27T03:06:00.557Z,15.90
2023-01-27T03:08:26.982Z,17.50
2023-01-27T03:10:56.066Z,17.40
2023-01-27T03:13:28.059Z,18.30
2023-01-27T03:16:14.592Z,17.40
2023-01-27T03:18:41.240Z,16.20
2023-01-27T03:21:07.972Z,17.10
2023-01-27T03:23:34.800Z,16.50
2023-01-27T03:26:06.748Z,16.40
2023-01-27T03:28:34.001Z,16.20
2023-01-27T03:31:06.599Z,16.10
2023-01-27T03:33:33.521Z,16.40
2023-01-27T03:36:23.066Z,12.90
2023-01-27T03:39:08.339Z,16.30
2023-01-27T03:41:53.137Z,14.90
2023-01-27T03:44:37.962Z,16.10
2023-01-27T03:47:04.410Z,16.40
2023-01-27T03:49:30.809Z,17.90
2023-01-27T03:51:57.319Z,18.10
2023-01-27T03:54:23.739Z,17.80
2023-01-27T03:56:50.237Z,15.70
2023-01-27T03:59:16.670Z,18.00
2023-01-27T04:01:44.176Z,16.90
2023-01-27T04:04:30.231Z,18.00
2023-01-27T04:07:02.690Z,17.40
2023-01-27T04:09:34.508Z,16.40
2023-01-27T04:12:05.193Z,16.40
2023-01-27T04:14:38.224Z,16.40
2023-01-27T04:17:13.271Z,15.50
2023-01-27T04:19:40.727Z,16.20
2023-01-27T04:22:08.864Z,15.90
2023-01-27T04:24:35.347Z,17.90
2023-01-27T04:27:08.241Z,17.60
2023-01-27T04:29:40.865Z,17.00
2023-01-27T04:32:13.070Z,16.90
2023-01-27T04:34:41.097Z,18.60
2023-01-27T04:37:09.781Z,17.10
2023-01-27T04:39:36.676Z,16.90
2023-01-27T04:42:03.924Z,17.90
2023-01-27T04:44:30.898Z,17.70
2023-01-27T04:46:57.521Z,18.10
2023-01-27T04:49:26.671Z,16.80
2023-01-27T04:51:53.606Z,16.60
2023-01-27T04:54:20.045Z,17.40
2023-01-27T04:56:59.859Z,19.30
2023-01-27T04:59:27.390Z,20.10
2023-01-27T05:01:53.946Z,20.20
2023-01-27T05:04:20.750Z,21.30
2023-01-27T05:06:47.316Z,19.20
2023-01-27T05:09:13.909Z,19.50
2023-01-27T05:11:40.395Z,19.90
2023-01-27T05:14:06.902Z,20.70
2023-01-27T05:16:33.459Z,18.30
2023-01-27T05:18:59.998Z,20.10
2023-01-27T05:21:31.005Z,20.60
2023-01-27T05:23:57.967Z,20.10
2023-01-27T05:26:27.782Z,20.20
2023-01-27T05:28:57.406Z,18.60
2023-01-27T05:31:28.456Z,20.60
2023-01-27T05:33:59.033Z,22.10
2023-01-27T05:36:26.730Z,20.50
2023-01-27T05:38:55.341Z,22.80
2023-01-27T05:41:22.976Z,23.00
2023-01-27T05:43:55.252Z,24.90
2023-01-27T05:46:26.356Z,19.80
2023-01-27T05:48:56.704Z,20.30
2023-01-27T05:51:25.717Z,20.40
2023-01-27T05:53:53.790Z,18.90
2023-01-27T05:56:21.647Z,17.80
2023-01-27T05:58:49.165Z,18.50
2023-01-27T06:01:22.457Z,18.10
2023-01-27T06:03:49.862Z,16.70
2023-01-27T06:06:19.941Z,17.80
2023-01-27T06:08:48.241Z,18.90
2023-01-27T06:11:17.986Z,19.20
2023-01-27T06:13:44.449Z,19.40
2023-01-27T06:16:14.508Z,17.70
2023-01-27T06:18:41.138Z,17.50
2023-01-27T06:21:10.384Z,18.60
2023-01-27T06:23:38.311Z,19.60
2023-01-27T06:26:13.124Z,20.20
2023-01-27T06:28:40.077Z,19.30
2023-01-27T06:31:13.940Z,19.10
2023-01-27T06:33:40.922Z,18.60
2023-01-27T06:36:11.685Z,20.20
2023-01-27T06:38:38.545Z,19.60
2023-01-27T06:41:05.373Z,19.30
2023-01-27T06:43:32.193Z,18.90
2023-01-27T06:45:58.770Z,19.30
2023-01-27T06:48:27.135Z,16.60
2023-01-27T06:50:55.493Z,18.30
2023-01-27T06:53:22.591Z,18.50
2023-01-27T06:55:49.288Z,20.60
2023-01-27T06:58:16.598Z,20.10
2023-01-27T07:00:43.267Z,18.40
2023-01-27T07:03:12.782Z,19.30
2023-01-27T07:05:41.326Z,17.90
2023-01-27T07:08:08.326Z,18.80
2023-01-27T07:10:34.876Z,20.00
2023-01-27T07:13:06.895Z,19.50
2023-01-27T07:15:34.347Z,19.10
2023-01-27T07:18:02.249Z,17.70
2023-01-27T07:20:29.448Z,16.90
2023-01-27T07:23:00.623Z,18.60
2023-01-27T07:25:28.281Z,17.20
2023-01-27T07:27:57.563Z,16.90
2023-01-27T07:30:25.370Z,16.50
2023-01-27T07:32:52.369Z,15.20
2023-01-27T07:35:19.357Z,16.60
2023-01-27T07:37:46.107Z,15.30
2023-01-27T07:40:16.300Z,15.00
2023-01-27T07:42:42.961Z,15.60
2023-01-27T07:45:10.482Z,14.20
2023-01-27T07:47:37.044Z,14.60
2023-01-27T07:50:03.729Z,15.40
2023-01-27T07:52:30.234Z,15.50
2023-01-27T07:54:56.676Z,15.00
2023-01-27T07:57:23.176Z,15.80
2023-01-27T07:59:53.095Z,15.80
2023-01-27T08:02:19.581Z,13.40
2023-01-27T08:04:53.537Z,13.10
2023-01-27T08:07:21.422Z,14.10
2023-01-27T08:09:48.070Z,13.40
2023-01-27T08:12:14.808Z,13.60
2023-01-27T08:14:41.504Z,14.80
2023-01-27T08:17:08.109Z,16.20
2023-01-27T08:19:34.518Z,15.10
2023-01-27T08:22:04.681Z,17.30
2023-01-27T08:24:31.191Z,17.10
2023-01-27T08:26:57.700Z,13.60
2023-01-27T08:29:24.394Z,15.60
2023-01-27T08:31:50.854Z,15.20
2023-01-27T08:34:32.907Z,15.50
2023-01-27T08:36:59.414Z,15.00
2023-01-27T08:39:25.973Z,15.30
2023-01-27T08:41:52.530Z,16.50
2023-01-27T08:44:19.487Z,16.30
2023-01-27T08:46:46.165Z,14.70
2023-01-27T08:49:15.566Z,16.30
2023-01-27T08:51:42.799Z,14.20
2023-01-27T08:54:09.796Z,14.40
2023-01-27T08:56:36.314Z,13.70
2023-01-27T08:59:02.913Z,14.40
2023-01-27T09:01:29.460Z,15.00
2023-01-27T09:03:55.951Z,12.90
2023-01-27T09:06:22.549Z,11.70
2023-01-27T09:09:11.136Z,11.40
2023-01-27T09:11:42.628Z,10.20
2023-01-27T09:14:10.689Z,10.80
2023-01-27T09:16:37.246Z,10.50
2023-01-27T09:19:04.290Z,11.70
2023-01-27T09:21:31.575Z,12.10
2023-01-27T09:23:58.176Z,12.90
2023-01-27T09:26:24.759Z,10.00
2023-01-27T09:28:51.254Z,10.50
2023-01-27T09:31:18.369Z,10.50
2023-01-27T09:33:45.105Z,11.20
2023-01-27T09:36:17.510Z,10.10
2023-01-27T09:38:57.312Z,9.80
2023-01-27T09:41:57.870Z,10.10
2023-01-27T09:44:52.319Z,9.80
2023-01-27T09:47:53.230Z,10.80
2023-01-27T09:51:30.910Z,11.00
2023-01-27T09:54:41.483Z,13.80
2023-01-27T09:57:51.745Z,15.70
2023-01-27T10:00:26.168Z,16.50
2023-01-27T10:03:27.901Z,16.90
2023-01-27T10:06:34.942Z,14.30
2023-01-27T10:09:22.519Z,14.80
2023-01-27T10:12:01.460Z,15.00
2023-01-27T10:15:06.645Z,14.90
2023-01-27T10:18:05.078Z,14.50
2023-01-27T10:21:38.254Z,12.10
2023-01-27T10:24:22.701Z,13.40
2023-01-27T10:27:02.562Z,13.70
2023-01-27T10:29:44.395Z,15.50
2023-01-27T10:32:52.447Z,14.80
2023-01-27T10:35:22.609Z,14.80
2023-01-27T10:38:15.312Z,12.20
2023-01-27T10:40:50.893Z,12.70
2023-01-27T10:43:42.380Z,14.70
2023-01-27T10:46:38.908Z,15.60
2023-01-27T10:49:24.030Z,14.90
2023-01-27T10:52:41.458Z,17.20
2023-01-27T10:55:21.935Z,15.20
2023-01-27T10:58:06.185Z,15.10
2023-01-27T11:01:18.905Z,16.50
2023-01-27T11:03:43.556Z,16.10
2023-01-27T11:06:37.615Z,13.50
2023-01-27T11:09:23.655Z,15.70
2023-01-27T11:11:52.506Z,16.00
2023-01-27T11:14:30.361Z,14.20
2023-01-27T11:17:14.424Z,16.90
2023-01-27T11:19:57.297Z,18.00
2023-01-27T11:22:35.260Z,15.60
2023-01-27T11:25:23.189Z,17.70
2023-01-27T11:28:19.679Z,18.20
2023-01-27T11:31:15.151Z,18.20
2023-01-27T11:34:28.039Z,18.10
2023-01-27T11:36:54.663Z,15.30
2023-01-27T11:39:21.725Z,15.70
2023-01-27T11:41:57.860Z,16.70
2023-01-27T11:44:34.323Z,15.50
2023-01-27T11:47:07.138Z,12.40
2023-01-27T11:49:48.630Z,14.80
2023-01-27T11:52:19.781Z,13.30
2023-01-27T11:54:59.839Z,12.90
2023-01-27T11:57:28.377Z,11.80
2023-01-27T12:00:18.269Z,10.70
2023-01-27T12:02:55.116Z,12.60
2023-01-27T12:05:31.587Z,13.20
2023-01-27T12:08:02.416Z,13.20
2023-01-27T12:10:42.408Z,12.90
2023-01-27T12:13:17.574Z,13.20
2023-01-27T12:15:53.328Z,12.60
2023-01-27T12:18:20.902Z,13.30
2023-01-27T12:20:57.359Z,14.40
2023-01-27T12:23:35.981Z,14.40
2023-01-27T12:26:07.443Z,14.60
2023-01-27T12:28:47.508Z,15.20
2023-01-27T12:31:32.882Z,13.80
2023-01-27T12:34:18.990Z,14.10
2023-01-27T12:36:47.918Z,14.00
2023-01-27T12:39:38.323Z,12.20
2023-01-27T12:42:05.827Z,14.50
2023-01-27T12:44:43.694Z,13.50
2023-01-27T12:47:25.903Z,15.60
2023-01-27T12:50:24.475Z,15.70
2023-01-27T12:53:20.917Z,15.10
2023-01-27T12:56:14.766Z,14.60
2023-01-27T12:59:00.271Z,14.90
2023-01-27T13:01:33.947Z,15.40
2023-01-27T13:04:17.113Z,14.40
2023-01-27T13:06:55.221Z,13.80
2023-01-27T13:09:35.764Z,13.60
2023-01-27T13:12:15.445Z,15.10
2023-01-27T13:14:44.127Z,16.00
2023-01-27T13:17:48.682Z,15.60
2023-01-27T13:20:47.022Z,14.30
2023-01-27T13:23:25.386Z,16.40
2023-01-27T13:26:10.326Z,16.30
2023-01-27T13:29:06.445Z,15.40
2023-01-27T13:31:43.455Z,16.10
2023-01-27T13:34:29.707Z,17.40
2023-01-27T13:37:07.808Z,17.70
2023-01-27T13:40:14.154Z,17.50
2023-01-27T13:43:13.619Z,17.50
2023-01-27T13:46:11.544Z,18.10
2023-01-27T13:48:59.163Z,15.70
2023-01-27T13:51:30.283Z,15.50
2023-01-27T13:54:02.797Z,14.70
2023-01-27T13:56:51.753Z,14.90
2023-01-27T14:00:05.023Z,14.50
2023-01-27T14:03:03.767Z,14.30
2023-01-27T14:05:45.086Z,14.50
2023-01-27T14:08:42.404Z,14.30
2023-01-27T14:11:34.537Z,15.00
2023-01-27T14:14:29.994Z,14.90
2023-01-27T14:17:26.622Z,13.80
2023-01-27T14:20:26.328Z,14.30
2023-01-27T14:23:03.597Z,14.70
2023-01-27T14:25:46.144Z,14.20
2023-01-27T14:28:25.115Z,13.50
2023-01-27T14:31:01.145Z,11.60
2023-01-27T14:33:51.165Z,13.50
2023-01-27T14:36:30.734Z,15.20
2023-01-27T14:39:18.282Z,13.50
2023-01-27T14:41:56.938Z,13.50
2023-01-27T14:45:02.888Z,15.10
2023-01-27T14:47:56.823Z,14.50
2023-01-27T14:50:51.988Z,14.00
2023-01-27T14:53:57.343Z,13.00
2023-01-27T14:57:08.743Z,13.70
2023-01-27T15:00:05.317Z,13.50
2023-01-27T15:02:48.489Z,12.50
2023-01-27T15:05:56.326Z,13.60
2023-01-27T15:08:50.815Z,13.60
2023-01-27T15:11:50.320Z,13.50
2023-01-27T15:15:05.952Z,12.90
2023-01-27T15:17:54.038Z,16.40
2023-01-27T15:20:47.851Z,15.70
2023-01-27T15:23:42.831Z,13.60
2023-01-27T15:26:11.079Z,14.50
2023-01-27T15:28:42.567Z,14.20
2023-01-27T15:31:21.494Z,14.50
2023-01-27T15:33:58.974Z,14.70
2023-01-27T15:36:29.081Z,15.00
2023-01-27T15:39:28.881Z,15.00
2023-01-27T15:42:02.128Z,15.30
2023-01-27T15:44:41.786Z,14.20
2023-01-27T15:47:23.484Z,14.90
2023-01-27T15:50:04.347Z,15.80
2023-01-27T15:52:42.481Z,16.20
2023-01-27T15:55:26.548Z,16.50
2023-01-27T15:58:09.908Z,16.90
2023-01-27T16:00:41.876Z,16.60
2023-01-27T16:03:37.815Z,21.10
2023-01-27T16:06:23.985Z,17.60
2023-01-27T16:09:00.923Z,16.70
2023-01-27T16:11:30.391Z,16.80
2023-01-27T16:14:12.032Z,16.60
2023-01-27T16:16:40.781Z,16.70
2023-01-27T16:19:11.076Z,17.00
2023-01-27T16:21:53.805Z,17.50
2023-01-27T16:24:33.245Z,16.20
2023-01-27T16:27:41.631Z,13.90
2023-01-27T16:30:21.578Z,15.90
2023-01-27T16:33:07.704Z,15.60
2023-01-27T16:35:45.560Z,15.00
2023-01-27T16:38:31.626Z,16.80
2023-01-27T16:41:09.228Z,15.50
2023-01-27T16:43:50.504Z,16.80
2023-01-27T16:46:58.377Z,16.60
2023-01-27T16:49:39.727Z,16.50
2023-01-27T16:52:16.555Z,16.30
2023-01-27T16:54:45.597Z,16.30
2023-01-27T16:57:36.496Z,16.10
2023-01-27T17:00:17.734Z,18.40
2023-01-27T17:02:44.481Z,17.60
2023-01-27T17:05:18.265Z,18.90
2023-01-27T17:08:14.135Z,17.90
2023-01-27T17:11:04.872Z,18.30
2023-01-27T17:13:36.458Z,16.10
2023-01-27T17:16:07.020Z,19.30
2023-01-27T17:18:51.751Z,17.20
2023-01-27T17:21:34.643Z,13.10
2023-01-27T17:24:10.798Z,16.20
2023-01-27T17:26:37.471Z,18.40
2023-01-27T17:29:04.376Z,17.00
2023-01-27T17:31:38.506Z,16.30
2023-01-27T17:34:05.344Z,17.50
2023-01-27T17:36:32.069Z,17.40
2023-01-27T17:38:58.621Z,17.80
2023-01-27T17:41:38.438Z,15.80
2023-01-27T17:44:13.871Z,16.30
2023-01-27T17:46:41.425Z,15.70
2023-01-27T17:49:19.228Z,16.10
2023-01-27T17:51:51.410Z,15.90
2023-01-27T17:54:35.382Z,17.50
2023-01-27T17:57:13.585Z,14.70
2023-01-27T17:59:46.932Z,13.10
2023-01-27T18:02:36.434Z,16.10
2023-01-27T18:05:17.982Z,16.50
2023-01-27T18:07:44.759Z,18.70
2023-01-27T18:10:40.581Z,19.20
2023-01-27T18:13:19.149Z,16.70
2023-01-27T18:16:01.238Z,16.10
2023-01-27T18:18:35.049Z,15.20
2023-01-27T18:21:04.322Z,15.20
2023-01-27T18:23:44.574Z,15.10
2023-01-27T18:26:33.619Z,15.90
2023-01-27T18:29:13.129Z,14.60
2023-01-27T18:31:59.467Z,14.70
2023-01-27T18:34:31.092Z,14.90
2023-01-27T18:37:08.755Z,15.70
2023-01-27T18:39:39.344Z,13.80
2023-01-27T18:42:21.890Z,16.80
2023-01-27T18:44:51.500Z,13.10
2023-01-27T18:47:18.165Z,14.90
2023-01-27T18:50:10.259Z,14.20
2023-01-27T18:52:37.103Z,13.90
2023-01-27T18:55:23.685Z,10.80
2023-01-27T18:57:58.150Z,14.50
2023-01-27T19:00:35.864Z,15.50
2023-01-27T19:03:03.571Z,14.60
2023-01-27T19:05:34.536Z,15.40
2023-01-27T19:08:02.363Z,15.20
2023-01-27T19:10:33.552Z,15.20
2023-01-27T19:13:02.915Z,15.00
2023-01-27T19:15:56.904Z,14.30
2023-01-27T19:18:29.437Z,14.70
2023-01-27T19:20:55.840Z,15.20
2023-01-27T19:23:22.334Z,16.10
2023-01-27T19:25:55.976Z,15.00
2023-01-27T19:28:38.608Z,12.30
2023-01-27T19:31:07.311Z,14.80
2023-01-27T19:33:34.759Z,15.60
2023-01-27T19:36:11.166Z,16.60
2023-01-27T19:38:37.589Z,16.40
2023-01-27T19:41:04.114Z,17.10
2023-01-27T19:43:30.708Z,15.70
2023-01-27T19:45:57.460Z,16.20
2023-01-27T19:48:24.533Z,16.30
2023-01-27T19:50:52.441Z,14.10
2023-01-27T19:53:20.093Z,15.00
2023-01-27T19:55:47.480Z,16.50
2023-01-27T19:58:24.789Z,15.40
2023-01-27T20:00:52.843Z,14.10
2023-01-27T20:03:19.530Z,14.60
2023-01-27T20:05:46.625Z,9.70
2023-01-27T20:08:17.217Z,10.70
2023-01-27T20:10:44.968Z,14.30
2023-01-27T20:13:20.043Z,14.10
2023-01-27T20:15:47.265Z,15.00
2023-01-27T20:18:18.871Z,13.20
2023-01-27T20:20:46.621Z,12.50
2023-01-27T20:23:16.960Z,12.90
2023-01-27T20:25:43.781Z,13.70
2023-01-27T20:28:12.091Z,16.00
2023-01-27T20:30:38.847Z,13.10
2023-01-27T20:33:05.697Z,14.70
2023-01-27T20:35:32.355Z,14.50
2023-01-27T20:37:59.009Z,12.10
2023-01-27T20:40:29.533Z,11.60
2023-01-27T20:42:56.402Z,12.60
2023-01-27T20:45:23.271Z,12.30
2023-01-27T20:47:54.222Z,13.00
2023-01-27T20:50:24.347Z,13.10
2023-01-27T20:52:53.187Z,13.70
2023-01-27T20:55:19.724Z,12.40
2023-01-27T20:57:47.643Z,13.80
2023-01-27T21:00:20.821Z,9.90
2023-01-27T21:02:48.578Z,13.50
2023-01-27T21:05:16.083Z,11.70
2023-01-27T21:07:43.152Z,13.40
2023-01-27T21:10:10.425Z,13.50
2023-01-27T21:12:36.900Z,13.40
2023-01-27T21:15:09.461Z,13.10
2023-01-27T21:17:35.991Z,13.00
2023-01-27T21:20:02.591Z,13.10
2023-01-27T21:22:29.124Z,14.00
2023-01-27T21:24:55.627Z,12.60
2023-01-27T21:27:22.066Z,14.30
2023-01-27T21:29:48.651Z,13.50
2023-01-27T21:32:15.089Z,10.00
2023-01-27T21:34:41.522Z,12.30
2023-01-27T21:37:07.947Z,13.80
2023-01-27T21:39:34.437Z,12.50
2023-01-27T21:42:00.866Z,13.90
2023-01-27T21:45:02.453Z,13.50
2023-01-27T21:47:28.927Z,11.50
2023-01-27T21:50:01.369Z,12.60
2023-01-27T21:52:35.488Z,12.70
2023-01-27T21:55:04.618Z,13.20
2023-01-27T21:57:31.675Z,12.60
2023-01-27T21:59:58.302Z,12.30
2023-01-27T22:02:25.628Z,13.80
2023-01-27T22:04:52.375Z,13.90
2023-01-27T22:07:19.811Z,12.90
2023-01-27T22:09:46.610Z,11.70
2023-01-27T22:12:16.276Z,12.70
2023-01-27T22:14:43.688Z,13.40
2023-01-27T22:17:10.959Z,10.70
2023-01-27T22:19:39.045Z,11.90
2023-01-27T22:22:08.214Z,10.60
2023-01-27T22:24:34.790Z,10.50
2023-01-27T22:27:01.319Z,11.80
2023-01-27T22:29:27.754Z,12.20
2023-01-27T22:31:54.256Z,11.80
2023-01-27T22:34:20.709Z,11.60
2023-01-27T22:36:49.721Z,12.00
2023-01-27T22:39:16.949Z,11.40
2023-01-27T22:41:45.238Z,12.10
2023-01-27T22:44:13.481Z,11.50
2023-01-27T22:46:42.503Z,12.10
2023-01-27T22:49:10.697Z,11.50
2023-01-27T22:51:37.428Z,11.80
2023-01-27T22:54:04.188Z,11.80
2023-01-27T22:56:31.060Z,9.70
2023-01-27T22:58:57.702Z,11.50
2023-01-27T23:01:24.142Z,11.30
2023-01-27T23:03:50.602Z,12.50
2023-01-27T23:06:17.141Z,11.70
2023-01-27T23:08:43.730Z,10.60
2023-01-27T23:11:10.247Z,12.20
2023-01-27T23:13:36.705Z,9.00
2023-01-27T23:16:03.867Z,11.30
2023-01-27T23:18:30.519Z,12.70
2023-01-27T23:21:04.408Z,11.60
2023-01-27T23:23:30.973Z,12.90
2023-01-27T23:25:57.537Z,10.40
2023-01-27T23:28:24.056Z,11.20
2023-01-27T23:30:51.621Z,12.30
2023-01-27T23:33:19.999Z,10.90
2023-01-27T23:35:46.904Z,11.70
2023-01-27T23:38:30.390Z,12.50
2023-01-27T23:41:18.490Z,10.40
2023-01-27T23:43:50.375Z,11.50
2023-01-27T23:46:16.876Z,11.50
2023-01-27T23:48:43.534Z,11.10
2023-01-27T23:51:13.561Z,11.90
2023-01-27T23:53:39.973Z,12.40
2023-01-27T23:56:09.016Z,12.60
2023-01-27T23:58:35.477Z,10.10
